Brownsville, OR (97327)

1:51 AM PDT on August 29, 2016 (GMT -0700)
Powell Hills | | Change Station

Elev 436 ft 44.41 °N, 123.03 °W | Updated 6 seconds ago

Clear
Clear
56.3 °F
Feels Like 56.3 °F
N
5.4
Wind Variable Wind from SW
Gusts 7.0 mph

Today
High -- | Low -- °F
--% Chance of Precip.
Yesterday
High -- | Low -- °F
Precip. -- in
Pressure 30.07 in
Visibility 10.0 miles
Clouds Clear
Dew Point 53 °F
Humidity 88%
Rainfall 0.00 in
Snow Depth Not available.
6:31 AM 7:52 PM
Waning Crescent, 10% visible
METAR KEUG 290754Z AUTO 21009KT 10SM CLR 14/11 A3007 RMK AO2 SLP181 T01390111 403060111 TSNO $
Pressure 30.07 in
Visibility 10.0 miles
Clouds Clear
Dew Point 53 °F
Humidity 88%
Rainfall 0.00 in
Snow Depth Not available.
6:31 AM 7:52 PM
Waning Crescent, 10% visible
METAR KEUG 290754Z AUTO 21009KT 10SM CLR 14/11 A3007 RMK AO2 SLP181 T01390111 403060111 TSNO $

10-Day Weather Forecast

Almanac

Astronomy

Aug. 29, 2016 Rise Set
Actual Time
Civil Twilight
Nautical Twilight
Astronomical Twilight
Moon
Length of Visible Light
Length of Day
Tomorrow will be .
, % of the Moon is Illuminated

Today's Extremes

State Highs State Lows

Community

WunderPhotos

Upload Photos

1,935,800 photos uploaded!

WunderBlog® & News

Nearby

Air Quality

  Air Quality AQ Index Pollutant
Not available.

Snow Depth

Station Depth Elevation

Earthquake Activity

City Distance Mag. Time & Date
Minimum magnitude displayed is 2.5.

Coastal Water Temperatures

Place Temperature

Stations

Nearby Weather Stations

Station Location Temp. Windchill Dew Point Humidity Wind Precip. Elev Updated Type
                   

Watches & Warnings

There are currently no watches in effect.